createdAt,value
2022-12-17T00:00:22.014Z,99.67
2022-12-17T00:03:16.496Z,100.77
2022-12-17T00:06:02.086Z,105.57
2022-12-17T00:08:47.675Z,102.27
2022-12-17T00:11:33.297Z,111.17
2022-12-17T00:14:19.044Z,116.63
2022-12-17T00:17:05.813Z,108.33
2022-12-17T00:19:50.474Z,108.63
2022-12-17T00:22:36.069Z,111.50
2022-12-17T00:25:21.603Z,110.67
2022-12-17T00:28:07.301Z,109.90
2022-12-17T00:30:52.712Z,112.70
2022-12-17T00:33:39.457Z,115.13
2022-12-17T00:36:25.123Z,106.43
2022-12-17T00:39:10.751Z,104.07
2022-12-17T00:41:56.919Z,104.73
2022-12-17T00:44:42.393Z,109.37
2022-12-17T00:47:27.813Z,102.70
2022-12-17T00:50:14.745Z,105.60
2022-12-17T00:53:00.287Z,102.80
2022-12-17T00:55:45.749Z,98.20
2022-12-17T00:58:31.350Z,109.50
2022-12-17T01:01:17.523Z,104.17
2022-12-17T01:04:11.303Z,103.90
2022-12-17T01:06:58.009Z,99.83
2022-12-17T01:09:43.745Z,102.90
2022-12-17T01:12:29.355Z,105.57
2022-12-17T01:15:14.812Z,103.67
2022-12-17T01:18:00.343Z,94.40
2022-12-17T01:20:44.918Z,97.00
2022-12-17T01:23:31.912Z,98.63
2022-12-17T01:26:20.779Z,97.23
2022-12-17T01:29:05.856Z,102.67
2022-12-17T01:31:47.762Z,106.60
2022-12-17T01:34:35.442Z,96.40
2022-12-17T01:37:21.897Z,104.13
2022-12-17T01:40:08.735Z,99.97
2022-12-17T01:42:58.079Z,97.60
2022-12-17T01:45:46.815Z,96.13
2022-12-17T01:48:35.056Z,97.83
2022-12-17T01:51:33.324Z,92.23
2022-12-17T01:54:20.976Z,93.33
2022-12-17T01:57:08.347Z,97.13
2022-12-17T02:00:01.283Z,95.20
2022-12-17T02:02:47.769Z,107.03
2022-12-17T02:05:33.291Z,100.97
2022-12-17T02:08:32.124Z,90.73
2022-12-17T02:11:28.603Z,94.40
2022-12-17T02:14:22.004Z,94.53
2022-12-17T02:17:11.860Z,89.57
2022-12-17T02:20:08.145Z,94.83
2022-12-17T02:23:05.892Z,85.80
2022-12-17T02:25:58.272Z,90.90
2022-12-17T02:28:47.206Z,90.33
2022-12-17T02:31:34.728Z,91.33
2022-12-17T02:34:20.920Z,86.40
2022-12-17T02:37:08.524Z,84.33
2022-12-17T02:39:56.113Z,83.10
2022-12-17T02:42:44.668Z,78.43
2022-12-17T02:45:32.667Z,77.20
2022-12-17T02:48:19.819Z,80.93
2022-12-17T02:51:06.115Z,76.03
2022-12-17T02:53:51.573Z,75.00
2022-12-17T02:56:36.815Z,74.67
2022-12-17T02:59:22.665Z,74.97
2022-12-17T03:02:10.245Z,81.67
2022-12-17T03:04:55.618Z,76.50
2022-12-17T03:07:41.155Z,78.53
2022-12-17T03:10:27.270Z,69.23
2022-12-17T03:13:12.648Z,68.83
2022-12-17T03:15:58.449Z,75.23
2022-12-17T03:18:45.393Z,77.63
2022-12-17T03:21:30.635Z,70.50
2022-12-17T03:24:27.802Z,70.20
2022-12-17T03:27:12.942Z,71.87
2022-12-17T03:29:58.488Z,71.57
2022-12-17T03:32:43.758Z,66.13
2022-12-17T03:35:30.547Z,66.73
2022-12-17T03:38:17.038Z,64.73
2022-12-17T03:41:02.465Z,70.20
2022-12-17T03:43:47.949Z,69.30
2022-12-17T03:46:33.229Z,78.90
2022-12-17T03:49:18.684Z,69.23
2022-12-17T03:52:05.269Z,67.30
2022-12-17T03:54:50.815Z,70.47
2022-12-17T03:57:36.239Z,73.83
2022-12-17T04:00:22.928Z,64.73
2022-12-17T04:03:08.492Z,64.70
2022-12-17T04:05:53.805Z,66.17
2022-12-17T04:08:40.719Z,65.03
2022-12-17T04:11:26.085Z,63.00
2022-12-17T04:14:11.580Z,64.53
2022-12-17T04:16:57.085Z,67.37
2022-12-17T04:19:42.553Z,68.43
2022-12-17T04:22:27.901Z,68.50
2022-12-17T04:25:14.835Z,67.43
2022-12-17T04:28:00.258Z,62.93
2022-12-17T04:30:45.583Z,67.03
2022-12-17T04:33:30.979Z,65.53
2022-12-17T04:36:16.371Z,66.00
2022-12-17T04:39:01.963Z,70.00
2022-12-17T04:41:48.541Z,67.50
2022-12-17T04:44:48.588Z,67.97
2022-12-17T04:47:33.811Z,62.40
2022-12-17T04:50:19.045Z,64.43
2022-12-17T04:53:04.620Z,64.83
2022-12-17T04:55:49.876Z,68.07
2022-12-17T04:58:39.043Z,62.47
2022-12-17T05:01:30.226Z,59.63
2022-12-17T05:04:15.883Z,67.50
2022-12-17T05:07:01.138Z,65.37
2022-12-17T05:09:46.883Z,57.97
2022-12-17T05:12:32.083Z,62.77
2022-12-17T05:15:18.952Z,64.67
2022-12-17T05:18:04.508Z,57.57
2022-12-17T05:20:49.792Z,63.33
2022-12-17T05:23:35.715Z,62.63
2022-12-17T05:26:23.429Z,58.03
2022-12-17T05:29:13.990Z,59.63
2022-12-17T05:32:02.685Z,53.80
2022-12-17T05:34:48.227Z,57.60
2022-12-17T05:37:33.564Z,55.67
2022-12-17T05:40:19.046Z,56.57
2022-12-17T05:43:13.747Z,61.83
2022-12-17T05:45:59.543Z,54.73
2022-12-17T05:48:46.502Z,59.60
2022-12-17T05:51:35.792Z,61.17
2022-12-17T05:54:24.131Z,58.47
2022-12-17T05:57:09.475Z,57.60
2022-12-17T05:59:55.215Z,57.93
2022-12-17T06:02:40.970Z,59.73
2022-12-17T06:05:28.539Z,57.07
2022-12-17T06:08:22.155Z,56.23
2022-12-17T06:11:07.406Z,55.70
2022-12-17T06:13:52.958Z,53.67
2022-12-17T06:16:38.495Z,58.93
2022-12-17T06:19:23.839Z,55.37
2022-12-17T06:22:10.887Z,57.53
2022-12-17T06:25:07.891Z,53.33
2022-12-17T06:27:53.440Z,57.47
2022-12-17T06:30:38.552Z,54.33
2022-12-17T06:33:24.892Z,57.10
2022-12-17T06:36:15.388Z,53.03
2022-12-17T06:39:06.632Z,55.17
2022-12-17T06:41:51.972Z,55.03
2022-12-17T06:44:37.924Z,54.17
2022-12-17T06:47:23.214Z,52.77
2022-12-17T06:50:08.822Z,55.73
2022-12-17T06:52:54.394Z,54.77
2022-12-17T06:55:41.110Z,53.23
2022-12-17T06:58:28.110Z,55.53
2022-12-17T07:01:13.660Z,49.23
2022-12-17T07:03:59.116Z,53.10
2022-12-17T07:06:44.461Z,49.77
2022-12-17T07:09:29.963Z,48.27
2022-12-17T07:12:16.760Z,45.50
2022-12-17T07:15:02.273Z,49.27
2022-12-17T07:17:47.750Z,47.93
2022-12-17T07:20:33.443Z,45.73
2022-12-17T07:23:19.059Z,53.33
2022-12-17T07:26:04.447Z,48.00
2022-12-17T07:28:51.442Z,62.42
2022-12-17T07:31:36.689Z,83.00
2022-12-17T07:34:22.048Z,72.80
2022-12-17T07:37:07.529Z,69.07
2022-12-17T07:39:52.895Z,62.17
2022-12-17T07:42:38.270Z,59.20
2022-12-17T07:45:26.988Z,52.20
2022-12-17T07:48:12.651Z,56.23
2022-12-17T07:50:57.997Z,52.20
2022-12-17T07:53:43.455Z,52.50
2022-12-17T07:56:28.861Z,59.13
2022-12-17T07:59:14.408Z,65.23
2022-12-17T08:02:01.268Z,60.90
2022-12-17T08:04:47.022Z,64.43
2022-12-17T08:07:32.655Z,65.00
2022-12-17T08:10:18.116Z,61.93
2022-12-17T08:13:14.363Z,62.90
2022-12-17T08:16:00.442Z,55.37
2022-12-17T08:18:49.940Z,52.17
2022-12-17T08:21:35.069Z,50.30
2022-12-17T08:24:20.586Z,44.63
2022-12-17T08:27:05.739Z,45.60
2022-12-17T08:29:51.479Z,58.20
2022-12-17T08:32:36.827Z,51.40
2022-12-17T08:35:24.206Z,47.87
2022-12-17T08:38:09.822Z,45.77
2022-12-17T08:40:55.200Z,44.43
2022-12-17T08:43:40.900Z,46.27
2022-12-17T08:46:26.383Z,46.80
2022-12-17T08:49:11.592Z,46.10
2022-12-17T08:51:58.493Z,49.03
2022-12-17T08:54:44.078Z,46.93
2022-12-17T08:57:32.658Z,43.20
2022-12-17T09:00:18.329Z,45.87
2022-12-17T09:03:04.026Z,48.50
2022-12-17T09:05:49.644Z,45.53
2022-12-17T09:08:36.395Z,52.73
2022-12-17T09:11:21.693Z,48.67
2022-12-17T09:14:07.137Z,51.13
2022-12-17T09:16:51.665Z,46.73
2022-12-17T09:19:37.260Z,48.67
2022-12-17T09:22:22.557Z,49.67
2022-12-17T09:25:09.464Z,56.43
2022-12-17T09:28:09.485Z,49.53
2022-12-17T09:30:55.010Z,53.50
2022-12-17T09:33:40.551Z,47.07
2022-12-17T09:36:27.380Z,54.60
2022-12-17T09:39:12.986Z,48.83
2022-12-17T09:42:06.929Z,45.67
2022-12-17T09:45:02.552Z,69.00
2022-12-17T09:48:00.713Z,54.47
2022-12-17T09:50:46.513Z,49.83
2022-12-17T09:53:40.173Z,49.50
2022-12-17T09:56:30.260Z,50.87
2022-12-17T09:59:17.406Z,52.23
2022-12-17T10:02:03.421Z,47.57
2022-12-17T10:04:53.405Z,49.43
2022-12-17T10:07:42.241Z,48.83
2022-12-17T10:10:37.387Z,54.00
2022-12-17T10:13:32.719Z,67.80
2022-12-17T10:16:20.062Z,63.17
2022-12-17T10:19:06.020Z,65.33
2022-12-17T10:21:54.763Z,63.33
2022-12-17T10:24:43.516Z,62.53
2022-12-17T10:27:30.544Z,50.13
2022-12-17T10:30:16.066Z,52.77
2022-12-17T10:33:13.142Z,57.27
2022-12-17T10:35:58.809Z,52.00
2022-12-17T10:38:46.706Z,56.33
2022-12-17T10:41:43.522Z,55.57
2022-12-17T10:44:42.867Z,53.00
2022-12-17T10:47:30.740Z,56.40
2022-12-17T10:50:19.376Z,56.77
2022-12-17T10:53:21.081Z,53.03
2022-12-17T10:56:08.923Z,51.03
2022-12-17T10:58:55.092Z,52.73
2022-12-17T11:01:42.782Z,49.10
2022-12-17T11:04:46.036Z,48.83
2022-12-17T11:07:37.805Z,52.63
2022-12-17T11:10:32.364Z,58.90
2022-12-17T11:13:22.106Z,66.43
2022-12-17T11:16:08.739Z,50.83
2022-12-17T11:19:03.358Z,50.90
2022-12-17T11:21:53.973Z,48.93
2022-12-17T11:24:45.222Z,45.63
2022-12-17T11:27:37.709Z,45.97
2022-12-17T11:30:31.095Z,46.07
2022-12-17T11:33:37.888Z,47.63
2022-12-17T11:36:38.468Z,51.67
2022-12-17T11:39:31.780Z,49.20
2022-12-17T11:42:23.230Z,53.10
2022-12-17T11:45:17.681Z,49.93
2022-12-17T11:48:10.676Z,47.40
2022-12-17T11:51:19.400Z,44.30
2022-12-17T11:54:13.563Z,46.10
2022-12-17T11:57:03.726Z,45.23
2022-12-17T11:59:57.003Z,44.20
2022-12-17T12:03:01.514Z,43.33
2022-12-17T12:06:03.276Z,42.60
2022-12-17T12:08:53.645Z,40.70
2022-12-17T12:11:48.932Z,40.33
2022-12-17T12:14:44.548Z,41.87
2022-12-17T12:17:46.325Z,42.33
2022-12-17T12:20:46.766Z,41.07
2022-12-17T12:23:40.900Z,41.43
2022-12-17T12:26:31.973Z,36.50
2022-12-17T12:29:23.992Z,40.83
2022-12-17T12:32:20.189Z,42.70
2022-12-17T12:35:07.503Z,40.90
2022-12-17T12:37:53.711Z,40.33
2022-12-17T12:40:52.648Z,46.58
2022-12-17T12:43:40.672Z,43.22
2022-12-17T12:46:33.600Z,40.27
2022-12-17T12:49:25.934Z,35.83
2022-12-17T12:52:14.169Z,39.43
2022-12-17T12:55:11.287Z,38.17
2022-12-17T12:57:59.371Z,36.93
2022-12-17T13:00:50.323Z,36.50
2022-12-17T13:03:45.381Z,37.07
2022-12-17T13:06:15.909Z,36.47
2022-12-17T13:08:45.107Z,36.67
2022-12-17T13:11:29.133Z,35.83
2022-12-17T13:14:03.324Z,38.23
2022-12-17T13:16:43.465Z,35.43
2022-12-17T13:19:21.911Z,37.80
2022-12-17T13:21:49.783Z,45.27
2022-12-17T13:24:27.209Z,39.90
2022-12-17T13:26:55.372Z,38.40
2022-12-17T13:29:29.168Z,39.93
2022-12-17T13:32:09.683Z,39.57
2022-12-17T13:34:52.859Z,43.90
2022-12-17T13:37:33.964Z,35.70
2022-12-17T13:40:19.051Z,31.43
2022-12-17T13:42:47.756Z,32.80
2022-12-17T13:45:17.772Z,30.87
2022-12-17T13:47:53.221Z,34.53
2022-12-17T13:50:38.345Z,33.83
2022-12-17T13:53:13.285Z,34.27
2022-12-17T13:55:42.608Z,32.83
2022-12-17T13:58:23.258Z,30.83
2022-12-17T14:00:51.328Z,30.27
2022-12-17T14:03:32.360Z,31.27
2022-12-17T14:06:12.389Z,26.13
2022-12-17T14:08:41.593Z,26.33
2022-12-17T14:11:30.731Z,25.60
2022-12-17T14:13:58.840Z,25.47
2022-12-17T14:16:26.874Z,27.90
2022-12-17T14:18:57.753Z,28.07
2022-12-17T14:21:27.171Z,23.30
2022-12-17T14:23:55.793Z,28.37
2022-12-17T14:26:25.084Z,25.67
2022-12-17T14:28:55.306Z,24.20
2022-12-17T14:31:28.573Z,24.50
2022-12-17T14:34:07.387Z,22.30
2022-12-17T14:36:38.579Z,25.00
2022-12-17T14:39:16.768Z,23.67
2022-12-17T14:42:03.583Z,25.13
2022-12-17T14:44:32.688Z,26.90
2022-12-17T14:47:12.502Z,22.37
2022-12-17T14:49:55.889Z,25.90
2022-12-17T14:52:35.795Z,22.03
2022-12-17T14:55:23.707Z,29.30
2022-12-17T14:57:53.790Z,18.07
2022-12-17T15:00:22.100Z,27.97
2022-12-17T15:02:55.478Z,26.27
2022-12-17T15:05:23.532Z,26.00
2022-12-17T15:07:51.707Z,21.40
2022-12-17T15:10:21.610Z,29.40
2022-12-17T15:12:51.355Z,25.40
2022-12-17T15:15:21.873Z,27.43
2022-12-17T15:17:49.818Z,34.67
2022-12-17T15:20:19.626Z,32.50
2022-12-17T15:22:48.621Z,32.67
2022-12-17T15:25:18.857Z,27.97
2022-12-17T15:27:47.141Z,31.63
2022-12-17T15:30:16.680Z,29.37
2022-12-17T15:32:48.145Z,28.37
2022-12-17T15:35:16.192Z,28.77
2022-12-17T15:37:43.995Z,33.90
2022-12-17T15:40:12.492Z,30.03
2022-12-17T15:43:01.686Z,35.10
2022-12-17T15:45:33.819Z,30.60
2022-12-17T15:48:03.061Z,31.90
2022-12-17T15:50:31.590Z,30.37
2022-12-17T15:52:59.399Z,35.40
2022-12-17T15:55:27.484Z,32.57
2022-12-17T15:57:55.292Z,29.37
2022-12-17T16:00:24.299Z,32.67
2022-12-17T16:02:52.815Z,33.33
2022-12-17T16:05:24.161Z,34.00
2022-12-17T16:07:52.459Z,34.07
2022-12-17T16:10:20.486Z,32.40
2022-12-17T16:12:48.342Z,33.30
2022-12-17T16:15:16.144Z,30.93
2022-12-17T16:17:43.984Z,33.43
2022-12-17T16:20:12.632Z,32.17
2022-12-17T16:22:41.809Z,36.27
2022-12-17T16:25:10.371Z,33.60
2022-12-17T16:27:38.207Z,33.80
2022-12-17T16:30:07.098Z,33.70
2022-12-17T16:32:36.744Z,31.33
2022-12-17T16:35:05.666Z,30.47
2022-12-17T16:37:33.527Z,30.83
2022-12-17T16:40:02.940Z,31.93
2022-12-17T16:42:30.840Z,31.77
2022-12-17T16:44:58.674Z,31.77
2022-12-17T16:47:26.425Z,31.80
2022-12-17T16:49:54.291Z,33.33
2022-12-17T16:52:22.090Z,33.30
2022-12-17T16:54:49.923Z,29.57
2022-12-17T16:57:19.035Z,28.37
2022-12-17T16:59:46.945Z,29.57
2022-12-17T17:02:16.457Z,31.10
2022-12-17T17:04:44.405Z,27.30
2022-12-17T17:07:12.249Z,28.83
2022-12-17T17:09:40.225Z,27.93
2022-12-17T17:12:08.914Z,37.43
2022-12-17T17:14:38.219Z,32.80
2022-12-17T17:17:06.250Z,37.90
2022-12-17T17:19:34.045Z,36.00
2022-12-17T17:22:02.098Z,37.33
2022-12-17T17:24:29.866Z,32.33
2022-12-17T17:26:57.731Z,29.40
2022-12-17T17:29:25.561Z,28.27
2022-12-17T17:32:10.216Z,30.40
2022-12-17T17:34:39.005Z,43.73
2022-12-17T17:37:06.803Z,34.93
2022-12-17T17:39:34.705Z,36.50
2022-12-17T17:42:03.302Z,27.60
2022-12-17T17:44:31.086Z,31.33
2022-12-17T17:47:00.396Z,32.47
2022-12-17T17:49:28.888Z,28.00
2022-12-17T17:52:12.544Z,30.27
2022-12-17T17:54:41.288Z,30.83
2022-12-17T17:57:09.756Z,27.83
2022-12-17T17:59:39.268Z,30.23
2022-12-17T18:02:09.137Z,30.30
2022-12-17T18:04:37.350Z,29.00
2022-12-17T18:09:53.169Z,28.93
2022-12-17T18:12:39.703Z,28.50
2022-12-17T18:15:17.675Z,29.23
2022-12-17T18:17:50.853Z,30.03
2022-12-17T18:20:19.460Z,30.97
2022-12-17T18:22:47.657Z,28.63
2022-12-17T18:25:16.053Z,34.00
2022-12-17T18:27:44.296Z,31.97
2022-12-17T18:30:12.900Z,32.97
2022-12-17T18:32:40.720Z,32.03
2022-12-17T18:35:10.838Z,32.23
2022-12-17T18:37:39.195Z,31.13
2022-12-17T18:40:08.353Z,32.90
2022-12-17T18:42:53.843Z,31.43
2022-12-17T18:45:21.736Z,29.80
2022-12-17T18:47:50.838Z,30.63
2022-12-17T18:50:20.341Z,36.20
2022-12-17T18:52:48.369Z,31.33
2022-12-17T18:55:16.271Z,33.33
2022-12-17T18:57:44.187Z,35.80
2022-12-17T19:00:13.261Z,33.27
2022-12-17T19:02:41.252Z,35.47
2022-12-17T19:05:09.625Z,31.27
2022-12-17T19:07:38.824Z,30.50
2022-12-17T19:10:07.644Z,32.20
2022-12-17T19:12:35.768Z,32.07
2022-12-17T19:15:03.528Z,33.73
2022-12-17T19:17:31.395Z,33.90
2022-12-17T19:19:59.277Z,30.53
2022-12-17T19:22:27.192Z,31.10
2022-12-17T19:24:56.376Z,35.27
2022-12-17T19:27:24.493Z,33.23
2022-12-17T19:29:56.948Z,32.83
2022-12-17T19:32:25.264Z,33.63
2022-12-17T19:34:53.097Z,34.73
2022-12-17T19:37:20.935Z,34.73
2022-12-17T19:39:48.706Z,32.57
2022-12-17T19:42:25.324Z,36.53
2022-12-17T19:44:54.053Z,32.93
2022-12-17T19:47:22.780Z,32.57
2022-12-17T19:49:50.659Z,33.90
2022-12-17T19:52:18.846Z,36.90
2022-12-17T19:54:46.687Z,35.17
2022-12-17T19:57:14.467Z,33.67
2022-12-17T19:59:43.678Z,36.93
2022-12-17T20:02:11.666Z,35.50
2022-12-17T20:04:39.687Z,37.03
2022-12-17T20:07:07.499Z,36.60
2022-12-17T20:09:35.328Z,36.73
2022-12-17T20:12:03.100Z,32.13
2022-12-17T20:14:31.485Z,33.30
2022-12-17T20:17:02.071Z,32.10
2022-12-17T20:19:31.317Z,33.60
2022-12-17T20:22:00.052Z,32.13
2022-12-17T20:24:31.676Z,34.40
2022-12-17T20:27:00.961Z,37.37
2022-12-17T20:29:29.308Z,33.63
2022-12-17T20:31:57.344Z,35.87
2022-12-17T20:34:26.570Z,36.30
2022-12-17T20:36:54.949Z,32.97
2022-12-17T20:39:27.439Z,33.37
2022-12-17T20:41:56.932Z,32.27
2022-12-17T20:44:25.004Z,32.80
2022-12-17T20:46:53.035Z,36.13
2022-12-17T20:49:20.940Z,30.40
2022-12-17T20:51:50.163Z,36.70
2022-12-17T20:54:18.079Z,34.93
2022-12-17T20:56:45.947Z,30.43
2022-12-17T20:59:17.170Z,31.77
2022-12-17T21:01:49.138Z,30.07
2022-12-17T21:04:20.944Z,33.27
2022-12-17T21:06:50.265Z,32.17
2022-12-17T21:09:20.032Z,36.17
2022-12-17T21:11:47.900Z,31.57
2022-12-17T21:14:17.714Z,33.37
2022-12-17T21:16:46.518Z,33.80
2022-12-17T21:19:16.345Z,34.73
2022-12-17T21:21:44.441Z,35.40
2022-12-17T21:24:13.753Z,34.67
2022-12-17T21:26:43.606Z,33.03
2022-12-17T21:29:11.725Z,28.07
2022-12-17T21:31:41.256Z,31.40
2022-12-17T21:34:12.724Z,34.67
2022-12-17T21:36:41.056Z,28.97
2022-12-17T21:39:10.125Z,32.00
2022-12-17T21:41:43.181Z,35.00
2022-12-17T21:44:15.448Z,29.13
2022-12-17T21:46:49.612Z,31.57
2022-12-17T21:49:18.938Z,28.07
2022-12-17T21:51:46.972Z,26.87
2022-12-17T21:54:19.378Z,29.83
2022-12-17T21:56:49.291Z,29.10
2022-12-17T21:59:17.294Z,28.27
2022-12-17T22:01:45.370Z,26.23
2022-12-17T22:04:13.460Z,30.27
2022-12-17T22:06:45.081Z,30.37
2022-12-17T22:09:27.055Z,27.60
2022-12-17T22:12:17.823Z,29.87
2022-12-17T22:14:45.915Z,27.07
2022-12-17T22:17:13.965Z,26.13
2022-12-17T22:19:41.925Z,31.17
2022-12-17T22:22:09.781Z,31.50
2022-12-17T22:24:37.700Z,29.53
2022-12-17T22:27:08.812Z,28.27
2022-12-17T22:29:55.184Z,28.63
2022-12-17T22:32:49.259Z,28.33
2022-12-17T22:36:18.762Z,27.70
2022-12-17T22:40:28.826Z,27.87
2022-12-17T22:44:35.377Z,28.13
2022-12-17T22:44:46.298Z,30.30
2022-12-17T22:46:31.534Z,28.40
2022-12-17T22:48:59.834Z,31.17
2022-12-17T22:51:33.713Z,30.80
2022-12-17T22:54:04.412Z,29.53
2022-12-17T22:57:32.046Z,25.93
2022-12-17T22:59:25.341Z,29.70
2022-12-17T23:01:53.479Z,31.40
2022-12-17T23:04:21.473Z,28.97
2022-12-17T23:06:49.461Z,27.30
2022-12-17T23:09:19.369Z,26.20
2022-12-17T23:11:49.021Z,27.50
2022-12-17T23:14:17.482Z,27.33
2022-12-17T23:16:46.816Z,27.83
2022-12-17T23:19:15.025Z,29.70
2022-12-17T23:21:42.926Z,30.03
2022-12-17T23:24:10.894Z,27.53
2022-12-17T23:26:39.833Z,28.33
2022-12-17T23:29:11.644Z,26.10
2022-12-17T23:31:41.762Z,25.00
2022-12-17T23:34:10.925Z,28.63
2022-12-17T23:36:39.045Z,27.77
2022-12-17T23:39:07.813Z,26.70
2022-12-17T23:41:35.769Z,29.17
2022-12-17T23:44:05.232Z,30.37
2022-12-17T23:46:33.286Z,29.57
2022-12-17T23:49:01.111Z,26.90
2022-12-17T23:51:30.545Z,29.47
2022-12-17T23:53:59.774Z,29.50
2022-12-17T23:56:28.895Z,28.17
2022-12-17T23:58:58.931Z,29.13
